createdAt,value
2022-08-05T00:01:30.752Z,101237.53
2022-08-05T00:04:03.642Z,101232.50
2022-08-05T00:06:33.372Z,101240.00
2022-08-05T00:09:02.410Z,101246.63
2022-08-05T00:11:34.726Z,101235.34
2022-08-05T00:14:11.986Z,101233.00
2022-08-05T00:16:52.836Z,101243.19
2022-08-05T00:19:21.513Z,101246.09
2022-08-05T00:21:48.979Z,101245.66
2022-08-05T00:24:16.260Z,101241.47
2022-08-05T00:26:50.792Z,101251.84
2022-08-05T00:29:19.242Z,101261.00
2022-08-05T00:32:10.081Z,101256.13
2022-08-05T00:34:54.890Z,101253.63
2022-08-05T00:37:22.666Z,101243.19
2022-08-05T00:39:58.850Z,101244.59
2022-08-05T00:42:32.542Z,101258.69
2022-08-05T00:44:59.474Z,101265.72
2022-08-05T00:47:26.130Z,101271.50
2022-08-05T00:49:58.389Z,101277.47
2022-08-05T00:52:28.781Z,101276.34
2022-08-05T00:54:56.126Z,101274.47
2022-08-05T00:57:23.110Z,101268.63
2022-08-05T00:59:52.551Z,101254.44
2022-08-05T01:02:19.111Z,101249.19
2022-08-05T01:04:45.786Z,101251.06
2022-08-05T01:07:17.998Z,101256.84
2022-08-05T01:09:44.953Z,101264.78
2022-08-05T01:12:20.086Z,101243.78
2022-08-05T01:15:03.896Z,101255.09
2022-08-05T01:17:43.987Z,101245.28
2022-08-05T01:20:29.890Z,101235.56
2022-08-05T01:23:34.738Z,101232.47
2022-08-05T01:26:26.260Z,101226.03
2022-08-05T01:29:04.324Z,101220.28
2022-08-05T01:31:44.811Z,101219.25
2022-08-05T01:34:26.801Z,101200.97
2022-08-05T01:37:03.984Z,101190.97
2022-08-05T01:39:46.017Z,101197.59
2022-08-05T01:42:17.034Z,101180.13
2022-08-05T01:44:45.685Z,101175.38
2022-08-05T01:47:21.988Z,101177.25
2022-08-05T01:50:02.037Z,101172.66
2022-08-05T01:52:31.658Z,101154.75
2022-08-05T01:55:04.559Z,101150.78
2022-08-05T01:58:10.722Z,101143.09
2022-08-05T02:00:30.755Z,101145.59
2022-08-05T02:03:34.175Z,101126.66
2022-08-05T02:06:03.429Z,101123.69
2022-08-05T02:08:54.790Z,101114.03
2022-08-05T02:11:32.740Z,101125.25
2022-08-05T02:14:15.603Z,101122.34
2022-08-05T02:16:52.742Z,101116.75
2022-08-05T02:19:34.548Z,101117.44
2022-08-05T02:22:25.416Z,101101.72
2022-08-05T02:25:00.067Z,101100.91
2022-08-05T02:27:30.226Z,101081.31
2022-08-05T02:30:14.693Z,101080.28
2022-08-05T02:32:43.432Z,101094.00
2022-08-05T02:35:27.698Z,101076.72
2022-08-05T02:37:56.592Z,101076.06
2022-08-05T02:40:27.559Z,101088.34
2022-08-05T02:42:56.444Z,101122.69
2022-08-05T02:45:25.348Z,101198.81
2022-08-05T02:48:11.441Z,101224.38
2022-08-05T02:50:43.811Z,101193.13
2022-08-05T02:53:19.083Z,101188.94
2022-08-05T02:55:54.066Z,101197.63
2022-08-05T02:58:23.159Z,101201.38
2022-08-05T03:00:56.326Z,101190.72
2022-08-05T03:03:23.599Z,101168.44
2022-08-05T03:06:54.183Z,101155.09
2022-08-05T03:08:42.722Z,101146.53
2022-08-05T03:11:56.042Z,101170.50
2022-08-05T03:14:13.839Z,101174.16
2022-08-05T03:16:41.315Z,101185.16
2022-08-05T03:19:12.790Z,101184.03
2022-08-05T03:21:48.623Z,101191.69
2022-08-05T03:24:29.621Z,101191.88
2022-08-05T03:26:58.604Z,101194.31
2022-08-05T03:29:46.065Z,101190.13
2022-08-05T03:32:14.271Z,101190.84
2022-08-05T03:34:41.603Z,101185.19
2022-08-05T03:37:08.040Z,101180.97
2022-08-05T03:39:47.198Z,101182.38
2022-08-05T03:42:21.191Z,101169.81
2022-08-05T03:44:47.672Z,101170.81
2022-08-05T03:47:14.249Z,101164.91
2022-08-05T03:49:51.444Z,101165.47
2022-08-05T03:52:38.382Z,101154.19
2022-08-05T03:56:05.120Z,101158.13
2022-08-05T03:58:10.695Z,101158.66
2022-08-05T04:00:39.816Z,101154.47
2022-08-05T04:03:26.629Z,101160.22
2022-08-05T04:05:57.641Z,101165.81
2022-08-05T04:08:34.953Z,101153.53
2022-08-05T04:11:05.941Z,101153.53
2022-08-05T04:13:50.155Z,101165.38
2022-08-05T04:16:25.370Z,101168.91
2022-08-05T04:19:00.076Z,101171.78
2022-08-05T04:22:08.931Z,101188.19
2022-08-05T04:24:19.704Z,101193.75
2022-08-05T04:26:49.819Z,101199.47
2022-08-05T04:29:16.436Z,101204.03
2022-08-05T04:31:43.099Z,101196.94
2022-08-05T04:34:18.303Z,101193.22
2022-08-05T04:36:50.179Z,101198.44
2022-08-05T04:39:18.579Z,101195.75
2022-08-05T04:41:45.816Z,101208.19
2022-08-05T04:44:14.695Z,101225.91
2022-08-05T04:46:47.551Z,101227.59
2022-08-05T04:49:15.274Z,101220.31
2022-08-05T04:51:43.572Z,101226.38
2022-08-05T04:54:10.128Z,101244.47
2022-08-05T04:56:38.553Z,101247.66
2022-08-05T04:59:22.906Z,101261.81
2022-08-05T05:02:06.954Z,101257.06
2022-08-05T05:04:47.890Z,101260.03
2022-08-05T05:07:21.179Z,101260.53
2022-08-05T05:09:55.893Z,101251.91
2022-08-05T05:12:24.255Z,101262.34
2022-08-05T05:14:54.052Z,101265.34
2022-08-05T05:17:24.266Z,101248.38
2022-08-05T05:19:56.466Z,101243.06
2022-08-05T05:22:26.488Z,101250.81
2022-08-05T05:24:59.893Z,101237.84
2022-08-05T05:27:41.799Z,101228.69
2022-08-05T05:30:29.358Z,101260.53
2022-08-05T05:33:00.639Z,101264.78
2022-08-05T05:35:34.456Z,101260.34
2022-08-05T05:38:06.369Z,101244.63
2022-08-05T05:40:36.164Z,101229.88
2022-08-05T05:43:02.994Z,101234.09
2022-08-05T05:45:29.784Z,101242.00
2022-08-05T05:48:05.432Z,101235.38
2022-08-05T05:50:43.928Z,101232.84
2022-08-05T05:53:22.617Z,101264.09
2022-08-05T05:55:51.710Z,101268.03
2022-08-05T05:58:31.719Z,101276.97
2022-08-05T06:01:11.971Z,101287.16
2022-08-05T06:04:00.352Z,101282.59
2022-08-05T06:06:28.030Z,101290.53
2022-08-05T06:08:58.478Z,101297.59
2022-08-05T06:11:25.042Z,101285.38
2022-08-05T06:13:54.171Z,101276.75
2022-08-05T06:16:28.320Z,101279.13
2022-08-05T06:19:00.796Z,101276.34
2022-08-05T06:21:35.721Z,101254.72
2022-08-05T06:24:05.081Z,101265.97
2022-08-05T06:26:33.991Z,101262.94
2022-08-05T06:29:03.289Z,101263.00
2022-08-05T06:31:32.177Z,101274.94
2022-08-05T06:34:07.701Z,101283.41
2022-08-05T06:36:56.937Z,101266.00
2022-08-05T06:39:22.325Z,101262.13
2022-08-05T06:41:53.522Z,101268.41
2022-08-05T06:44:19.924Z,101272.66
2022-08-05T06:46:50.723Z,101280.84
2022-08-05T06:49:17.841Z,101286.53
2022-08-05T06:51:45.575Z,101284.88
2022-08-05T06:54:18.908Z,101295.78
2022-08-05T06:56:54.960Z,101305.03
2022-08-05T06:59:38.535Z,101305.31
2022-08-05T07:02:05.417Z,101302.41
2022-08-05T07:04:31.894Z,101290.41
2022-08-05T07:06:59.773Z,101288.81
2022-08-05T07:09:26.250Z,101291.34
2022-08-05T07:12:00.630Z,101294.53
2022-08-05T07:14:45.945Z,101289.31
2022-08-05T07:17:58.837Z,101280.56
2022-08-05T07:22:45.772Z,101286.84
2022-08-05T07:25:54.095Z,101282.00
2022-08-05T07:28:05.925Z,101299.34
2022-08-05T07:30:38.849Z,101303.06
2022-08-05T07:33:09.748Z,101305.78
2022-08-05T07:36:03.793Z,101304.91
2022-08-05T07:38:33.510Z,101298.22
2022-08-05T07:41:17.184Z,101287.31
2022-08-05T07:43:49.217Z,101284.78
2022-08-05T07:46:24.295Z,101285.53
2022-08-05T07:49:03.591Z,101276.75
2022-08-05T07:51:37.268Z,101282.56
2022-08-05T07:54:05.295Z,101299.81
2022-08-05T07:56:39.383Z,101302.91
2022-08-05T07:59:18.196Z,101297.00
2022-08-05T08:01:52.053Z,101306.34
2022-08-05T08:04:37.419Z,101314.22
2022-08-05T08:07:07.477Z,101311.88
2022-08-05T08:09:34.504Z,101323.09
2022-08-05T08:12:09.053Z,101312.38
2022-08-05T08:14:42.367Z,101292.06
2022-08-05T08:17:21.304Z,101297.78
2022-08-05T08:20:22.113Z,101296.69
2022-08-05T08:22:35.193Z,101298.94
2022-08-05T08:25:02.746Z,101303.09
2022-08-05T08:27:40.082Z,101295.16
2022-08-05T08:30:19.569Z,101298.03
2022-08-05T08:32:56.881Z,101295.34
2022-08-05T08:35:26.542Z,101299.06
2022-08-05T08:37:53.591Z,101306.38
2022-08-05T08:40:23.708Z,101311.59
2022-08-05T08:42:53.017Z,101307.13
2022-08-05T08:45:26.547Z,101311.13
2022-08-05T08:48:10.726Z,101315.72
2022-08-05T08:51:23.189Z,101315.34
2022-08-05T08:53:36.372Z,101301.59
2022-08-05T08:56:06.610Z,101316.22
2022-08-05T08:58:37.147Z,101311.44
2022-08-05T09:01:15.870Z,101311.06
2022-08-05T09:03:46.508Z,101315.09
2022-08-05T09:06:17.189Z,101332.19
2022-08-05T09:08:46.770Z,101338.34
2022-08-05T09:11:14.853Z,101351.50
2022-08-05T09:14:00.816Z,101364.88
2022-08-05T09:16:29.343Z,101358.22
2022-08-05T09:18:56.074Z,101360.09
2022-08-05T09:22:22.000Z,101359.50
2022-08-05T09:24:15.534Z,101371.38
2022-08-05T09:26:43.562Z,101363.38
2022-08-05T09:29:10.341Z,101365.25
2022-08-05T09:32:41.685Z,101357.47
2022-08-05T09:34:23.361Z,101364.59
2022-08-05T09:36:55.630Z,101361.69
2022-08-05T09:39:41.935Z,101359.34
2022-08-05T09:42:22.955Z,101354.94
2022-08-05T09:44:56.691Z,101358.69
2022-08-05T09:47:48.112Z,101360.34
2022-08-05T09:50:13.778Z,101355.56
2022-08-05T09:52:45.394Z,101351.88
2022-08-05T09:55:56.676Z,101341.38
2022-08-05T09:57:59.959Z,101337.66
2022-08-05T10:00:27.653Z,101334.69
2022-08-05T10:02:54.757Z,101344.50
2022-08-05T10:05:27.100Z,101355.72
2022-08-05T10:08:35.407Z,101363.88
2022-08-05T10:10:53.843Z,101352.75
2022-08-05T10:13:45.645Z,101349.75
2022-08-05T10:16:42.027Z,101356.81
2022-08-05T10:19:23.449Z,101356.19
2022-08-05T10:21:59.008Z,101367.59
2022-08-05T10:24:27.222Z,101375.84
2022-08-05T10:27:00.315Z,101378.72
2022-08-05T10:30:41.984Z,101366.78
2022-08-05T10:32:54.508Z,101354.19
2022-08-05T10:35:03.461Z,101362.50
2022-08-05T10:37:40.047Z,101375.56
2022-08-05T10:40:34.623Z,101382.13
2022-08-05T10:43:35.922Z,101386.88
2022-08-05T10:46:06.331Z,101394.53
2022-08-05T10:48:56.481Z,101413.00
2022-08-05T10:51:28.969Z,101382.56
2022-08-05T10:54:01.832Z,101373.81
2022-08-05T10:56:49.285Z,101393.78
2022-08-05T11:00:03.101Z,101380.47
2022-08-05T11:02:34.749Z,101383.47
2022-08-05T11:05:05.783Z,101422.69
2022-08-05T11:07:32.771Z,101427.63
2022-08-05T11:10:27.234Z,101423.59
2022-08-05T11:12:55.908Z,101417.69
2022-08-05T11:16:00.174Z,101423.59
2022-08-05T11:18:34.037Z,101413.06
2022-08-05T11:21:06.285Z,101416.13
2022-08-05T11:24:05.225Z,101433.88
2022-08-05T11:26:40.484Z,101438.63
2022-08-05T11:29:40.897Z,101441.81
2022-08-05T11:32:26.340Z,101420.88
2022-08-05T11:34:54.338Z,101420.59
2022-08-05T11:38:28.947Z,101431.06
2022-08-05T11:41:03.504Z,101455.94
2022-08-05T11:44:12.546Z,101456.34
2022-08-05T11:47:14.032Z,101461.63
2022-08-05T11:49:50.906Z,101453.69
2022-08-05T11:52:29.047Z,101465.47
2022-08-05T11:54:57.398Z,101476.28
2022-08-05T11:58:08.176Z,101479.75
2022-08-05T12:00:31.205Z,101486.31
2022-08-05T12:02:57.887Z,101473.63
2022-08-05T12:05:32.404Z,101474.28
2022-08-05T12:08:10.087Z,101480.72
2022-08-05T12:10:45.425Z,101473.72
2022-08-05T12:13:16.830Z,101478.94
2022-08-05T12:15:49.910Z,101489.75
2022-08-05T12:18:20.569Z,101486.56
2022-08-05T12:20:50.645Z,101484.34
2022-08-05T12:23:17.118Z,101487.78
2022-08-05T12:25:56.791Z,101488.16
2022-08-05T12:28:32.528Z,101493.13
2022-08-05T12:31:02.066Z,101490.13
2022-08-05T12:33:37.234Z,101494.41
2022-08-05T12:36:09.530Z,101488.06
2022-08-05T12:38:41.103Z,101484.13
2022-08-05T12:41:12.852Z,101483.16
2022-08-05T12:43:57.230Z,101499.19
2022-08-05T12:46:31.575Z,101487.41
2022-08-05T12:49:13.594Z,101500.25
2022-08-05T12:52:10.451Z,101497.28
2022-08-05T12:54:33.275Z,101499.59
2022-08-05T12:57:09.203Z,101505.28
2022-08-05T13:01:59.953Z,101494.25
2022-08-05T13:02:36.064Z,101486.69
2022-08-05T13:05:06.423Z,101499.41
2022-08-05T13:08:00.115Z,101507.91
2022-08-05T13:10:20.467Z,101503.09
2022-08-05T13:12:57.784Z,101508.78
2022-08-05T13:15:41.541Z,101494.09
2022-08-05T13:18:20.850Z,101506.84
2022-08-05T13:20:49.720Z,101512.03
2022-08-05T13:23:22.142Z,101507.19
2022-08-05T13:25:52.152Z,101511.97
2022-08-05T13:28:25.678Z,101503.94
2022-08-05T13:30:53.286Z,101506.19
2022-08-05T13:34:21.551Z,101508.91
2022-08-05T13:36:06.752Z,101504.84
2022-08-05T13:38:38.291Z,101513.63
2022-08-05T13:41:08.624Z,101509.84
2022-08-05T13:43:45.689Z,101505.38
2022-08-05T13:46:44.069Z,101508.09
2022-08-05T13:49:11.756Z,101496.56
2022-08-05T13:51:40.830Z,101494.25
2022-08-05T13:54:12.605Z,101495.28
2022-08-05T13:56:45.282Z,101489.84
2022-08-05T13:59:21.056Z,101498.66
2022-08-05T14:01:58.209Z,101489.00
2022-08-05T14:04:49.190Z,101492.56
2022-08-05T14:07:56.527Z,101500.16
2022-08-05T14:10:10.571Z,101499.31
2022-08-05T14:12:37.439Z,101508.56
2022-08-05T14:16:04.879Z,101499.97
2022-08-05T14:17:55.048Z,101500.63
2022-08-05T14:20:27.323Z,101500.91
2022-08-05T14:22:54.519Z,101501.97
2022-08-05T14:25:22.496Z,101502.41
2022-08-05T14:27:54.655Z,101502.03
2022-08-05T14:30:21.705Z,101495.75
2022-08-05T14:32:48.855Z,101490.66
2022-08-05T14:35:16.189Z,101489.59
2022-08-05T14:37:52.124Z,101487.09
2022-08-05T14:40:21.602Z,101494.06
2022-08-05T14:42:51.338Z,101492.59
2022-08-05T14:45:18.700Z,101502.25
2022-08-05T14:48:02.948Z,101500.16
2022-08-05T14:50:32.168Z,101503.09
2022-08-05T14:52:59.595Z,101506.59
2022-08-05T14:55:28.590Z,101516.84
2022-08-05T14:58:11.177Z,101508.59
2022-08-05T15:00:39.704Z,101512.97
2022-08-05T15:03:33.949Z,101513.19
2022-08-05T15:06:12.664Z,101508.78
2022-08-05T15:08:59.673Z,101504.41
2022-08-05T15:11:52.564Z,101491.28
2022-08-05T15:14:33.584Z,101481.06
2022-08-05T15:17:01.488Z,101496.03
2022-08-05T15:19:30.425Z,101490.22
2022-08-05T15:21:59.963Z,101504.28
2022-08-05T15:24:27.567Z,101518.81
2022-08-05T15:26:53.962Z,101582.16
2022-08-05T15:29:22.893Z,101570.34
2022-08-05T15:31:52.771Z,101568.63
2022-08-05T15:34:33.209Z,101564.22
2022-08-05T15:37:06.828Z,101573.47
2022-08-05T15:41:01.277Z,101559.81
2022-08-05T15:42:50.064Z,101569.84
2022-08-05T15:45:15.084Z,101575.56
2022-08-05T15:47:43.653Z,101577.59
2022-08-05T15:50:15.390Z,101580.47
2022-08-05T15:52:53.440Z,101583.00
2022-08-05T15:55:24.891Z,101569.44
2022-08-05T15:58:09.884Z,101581.25
2022-08-05T16:00:57.109Z,101585.28
2022-08-05T16:03:30.410Z,101580.72
2022-08-05T16:05:59.437Z,101586.03
2022-08-05T16:08:30.373Z,101582.69
2022-08-05T16:10:57.947Z,101585.09
2022-08-05T16:13:34.147Z,101598.72
2022-08-05T16:16:01.349Z,101594.44
2022-08-05T16:18:29.979Z,101594.69
2022-08-05T16:20:56.440Z,101601.03
2022-08-05T16:23:22.985Z,101609.63
2022-08-05T16:25:49.821Z,101607.84
2022-08-05T16:28:22.287Z,101617.50
2022-08-05T16:30:52.092Z,101613.16
2022-08-05T16:33:19.319Z,101619.72
2022-08-05T16:35:49.881Z,101613.28
2022-08-05T16:38:25.683Z,101610.41
2022-08-05T16:41:00.147Z,101625.09
2022-08-05T16:43:32.911Z,101618.59
2022-08-05T16:46:04.549Z,101620.03
2022-08-05T16:48:38.327Z,101616.06
2022-08-05T16:51:09.029Z,101631.41
2022-08-05T16:54:05.366Z,101632.66
2022-08-05T16:56:24.527Z,101639.13
2022-08-05T16:58:51.199Z,101647.31
2022-08-05T17:01:18.896Z,101634.69
2022-08-05T17:03:45.824Z,101649.41
2022-08-05T17:06:12.585Z,101651.97
2022-08-05T17:08:53.151Z,101657.66
2022-08-05T17:11:23.747Z,101659.13
2022-08-05T17:14:00.435Z,101667.44
2022-08-05T17:16:33.255Z,101668.66
2022-08-05T17:19:02.210Z,101664.53
2022-08-05T17:21:35.672Z,101660.81
2022-08-05T17:24:19.689Z,101668.38
2022-08-05T17:26:52.715Z,101673.63
2022-08-05T17:29:22.459Z,101681.53
2022-08-05T17:32:00.642Z,101695.25
2022-08-05T17:34:30.038Z,101704.16
2022-08-05T17:36:58.681Z,101696.34
2022-08-05T17:39:34.131Z,101708.06
2022-08-05T17:42:20.388Z,101702.94
2022-08-05T17:44:51.381Z,101702.69
2022-08-05T17:47:22.470Z,101702.03
2022-08-05T17:50:00.582Z,101708.97
2022-08-05T17:52:34.719Z,101724.84
2022-08-05T17:55:20.753Z,101719.53
2022-08-05T17:57:48.650Z,101729.38
2022-08-05T18:00:17.246Z,101726.28
2022-08-05T18:02:46.764Z,101729.19
2022-08-05T18:05:16.656Z,101735.84
2022-08-05T18:07:44.440Z,101742.69
2022-08-05T18:10:20.591Z,101740.53
2022-08-05T18:12:48.644Z,101753.94
2022-08-05T18:15:15.153Z,101742.31
2022-08-05T18:17:58.958Z,101749.72
2022-08-05T18:20:29.227Z,101750.78
2022-08-05T18:22:58.326Z,101758.06
2022-08-05T18:25:33.163Z,101754.78
2022-08-05T18:28:04.676Z,101755.53
2022-08-05T18:30:32.267Z,101763.94
2022-08-05T18:33:00.269Z,101755.41
2022-08-05T18:35:49.383Z,101764.28
2022-08-05T18:38:16.411Z,101771.50
2022-08-05T18:41:56.289Z,101765.09
2022-08-05T18:43:37.984Z,101774.22
2022-08-05T18:46:09.964Z,101775.59
2022-08-05T18:48:41.768Z,101779.72
2022-08-05T18:52:06.652Z,101779.66
2022-08-05T18:54:14.294Z,101787.03
2022-08-05T18:56:40.823Z,101788.25
2022-08-05T18:59:43.838Z,101791.97
2022-08-05T19:01:58.226Z,101798.22
2022-08-05T19:04:25.193Z,101801.94
2022-08-05T19:06:51.825Z,101811.22
2022-08-05T19:09:21.197Z,101815.25
2022-08-05T19:11:59.502Z,101815.06
2022-08-05T19:14:44.944Z,101816.72
2022-08-05T19:17:15.827Z,101816.34
2022-08-05T19:19:48.542Z,101817.47
2022-08-05T19:22:17.301Z,101830.75
2022-08-05T19:24:54.500Z,101838.84
2022-08-05T19:27:27.732Z,101837.09
2022-08-05T19:29:57.248Z,101845.50
2022-08-05T19:32:26.106Z,101853.25
2022-08-05T19:34:54.518Z,101853.41
2022-08-05T19:37:22.761Z,101862.66
2022-08-05T19:40:01.892Z,101866.91
2022-08-05T19:42:35.536Z,101865.38
2022-08-05T19:45:05.679Z,101866.91
2022-08-05T19:47:32.989Z,101866.75
2022-08-05T19:50:01.076Z,101864.50
2022-08-05T19:52:31.385Z,101874.16
2022-08-05T19:55:00.366Z,101875.31
2022-08-05T19:57:48.865Z,101874.22
2022-08-05T20:00:18.658Z,101887.38
2022-08-05T20:02:47.433Z,101882.75
2022-08-05T20:05:24.122Z,101890.66
2022-08-05T20:07:54.985Z,101883.47
2022-08-05T20:10:24.492Z,101889.81
2022-08-05T20:12:55.066Z,101894.63
2022-08-05T20:15:23.220Z,101889.44
2022-08-05T20:18:10.922Z,101891.75
2022-08-05T20:20:56.722Z,101903.75
2022-08-05T20:23:40.502Z,101905.66
2022-08-05T20:26:16.097Z,101908.28
2022-08-05T20:28:50.136Z,101914.56
2022-08-05T20:31:17.488Z,101910.94
2022-08-05T20:33:48.466Z,101909.84
2022-08-05T20:36:17.845Z,101917.38
2022-08-05T20:38:53.384Z,101918.81
2022-08-05T20:41:27.066Z,101917.56
2022-08-05T20:44:18.489Z,101929.66
2022-08-05T20:46:46.442Z,101929.09
2022-08-05T20:49:13.880Z,101938.59
2022-08-05T20:51:40.468Z,101944.25
2022-08-05T20:54:07.068Z,101927.84
2022-08-05T20:56:42.533Z,101928.97
2022-08-05T20:59:14.086Z,101937.19
2022-08-05T21:01:46.248Z,101942.00
2022-08-05T21:04:13.602Z,101946.84
2022-08-05T21:06:45.132Z,101939.06
2022-08-05T21:09:12.499Z,101952.66
2022-08-05T21:12:09.066Z,101952.94
2022-08-05T21:14:27.624Z,101952.09
2022-08-05T21:16:54.917Z,101950.41
2022-08-05T21:19:21.377Z,101956.78
2022-08-05T21:21:50.756Z,101952.53
2022-08-05T21:24:19.526Z,101948.75
2022-08-05T21:26:53.642Z,101956.81
2022-08-05T21:29:26.694Z,101964.31
2022-08-05T21:31:58.789Z,101963.88
2022-08-05T21:34:25.232Z,101970.41
2022-08-05T21:36:54.907Z,101974.25
2022-08-05T21:39:26.824Z,101972.69
2022-08-05T21:42:01.107Z,101973.53
2022-08-05T21:44:29.507Z,101970.00
2022-08-05T21:46:57.984Z,101975.38
2022-08-05T21:49:58.858Z,101977.22
2022-08-05T21:52:16.118Z,101984.28
2022-08-05T21:54:51.126Z,101973.53
2022-08-05T21:57:31.483Z,101972.81
2022-08-05T22:00:10.823Z,101973.38
2022-08-05T22:02:38.438Z,101973.38
2022-08-05T22:05:06.022Z,101972.69
2022-08-05T22:07:40.428Z,101964.19
2022-08-05T22:10:25.510Z,101978.34
2022-08-05T22:12:57.444Z,101977.63
2022-08-05T22:16:00.285Z,101983.88
2022-08-05T22:18:11.144Z,101984.97
2022-08-05T22:20:39.112Z,101991.66
2022-08-05T22:23:25.439Z,101996.31
2022-08-05T22:26:30.541Z,101993.91
2022-08-05T22:28:57.250Z,101992.50
2022-08-05T22:31:25.029Z,101998.13
2022-08-05T22:34:01.579Z,101992.94
2022-08-05T22:36:29.054Z,101996.75
2022-08-05T22:38:56.204Z,102000.56
2022-08-05T22:42:05.429Z,102003.53
2022-08-05T22:44:10.260Z,101994.88
2022-08-05T22:46:39.780Z,101993.31
2022-08-05T22:49:23.452Z,102009.88
2022-08-05T22:52:06.607Z,102004.78
2022-08-05T22:54:34.860Z,102008.72
2022-08-05T22:57:01.489Z,102013.53
2022-08-05T22:59:46.265Z,102012.13
2022-08-05T23:02:17.425Z,102002.63
2022-08-05T23:04:51.405Z,102010.34
2022-08-05T23:07:19.419Z,102015.88
2022-08-05T23:09:57.782Z,102018.00
2022-08-05T23:12:32.413Z,102015.56
2022-08-05T23:15:01.352Z,102012.44
2022-08-05T23:17:34.060Z,102017.69
2022-08-05T23:20:10.487Z,102029.25
2022-08-05T23:22:47.850Z,102023.91
2022-08-05T23:25:17.663Z,102028.53
2022-08-05T23:28:03.421Z,102031.38
2022-08-05T23:30:40.369Z,102035.19
2022-08-05T23:33:21.871Z,102038.16
2022-08-05T23:35:56.059Z,102043.66
2022-08-05T23:38:23.505Z,102044.91
2022-08-05T23:40:52.714Z,102048.69
2022-08-05T23:43:25.206Z,102056.16
2022-08-05T23:46:21.440Z,102055.88
2022-08-05T23:49:00.895Z,102059.78
2022-08-05T23:51:52.337Z,102068.09
2022-08-05T23:54:25.648Z,102066.81
2022-08-05T23:56:53.926Z,102068.06
2022-08-05T23:59:20.494Z,102070.41
